Time;durP1;ratioP1;P1;durP2;ratioP2;P2;SDS_P1;SDS_P2;PMS_P1;PMS_P2;Temp;Humidity;BMP_temperature;BMP_pressure;BME280_temperature;BME280_humidity;BME280_pressure;Samples;Min_cycle;Max_cycle;Signal;HPM_P1;HPM_P2
2024/01/28 00:01:20;;;;;;;15.17;8.10;;;3.10;99.90;;;2.84;91.24;102377.78;4823458;28;20777;-68
2024/01/28 00:03:42;;;;;;;16.33;8.55;;;3.10;99.90;;;2.78;91.82;102376.13;4833344;28;24455;-68
2024/01/28 00:06:04;;;;;;;14.80;8.68;;;3.00;99.90;;;2.81;90.91;102378.66;4833734;28;24531;-69
2024/01/28 00:08:26;;;;;;;13.02;7.90;;;3.00;99.90;;;2.77;91.63;102374.41;4835289;28;24442;-68
2024/01/28 00:10:48;;;;;;;11.98;7.60;;;3.00;99.90;;;2.78;91.38;102370.13;4835480;28;24543;-71
2024/01/28 00:13:11;;;;;;;17.33;7.90;;;3.00;99.90;;;2.74;91.28;102368.47;4836284;28;24482;-68
2024/01/28 00:15:33;;;;;;;12.05;7.30;;;3.00;99.90;;;2.71;91.03;102361.63;4834344;28;24428;-69
2024/01/28 00:17:55;;;;;;;17.75;8.18;;;2.90;99.90;;;2.70;91.04;102356.47;4833550;28;24448;-67
2024/01/28 00:20:18;;;;;;;14.52;7.65;;;2.90;99.90;;;2.72;90.81;102365.06;4835811;28;24439;-69
2024/01/28 00:22:40;;;;;;;17.65;8.00;;;2.90;99.90;;;2.72;91.38;102354.75;4834534;28;24523;-70
2024/01/28 00:25:02;;;;;;;14.13;7.90;;;2.90;99.90;;;2.64;92.00;102362.53;4822215;28;24457;-68
2024/01/28 00:27:24;;;;;;;11.07;7.15;;;2.90;99.90;;;2.61;92.11;102352.28;4835896;28;25036;-69
2024/01/28 00:29:46;;;;;;;13.57;7.00;;;2.80;99.90;;;2.56;91.96;102348.03;4836466;28;24421;-68
2024/01/28 00:32:08;;;;;;;13.48;7.50;;;2.80;99.90;;;2.55;91.33;102349.78;4829036;28;25093;-68
2024/01/28 00:34:30;;;;;;;13.10;6.88;;;2.70;99.90;;;2.53;92.19;102346.38;4831800;28;24982;-69
2024/01/28 00:36:53;;;;;;;12.60;7.03;;;2.70;99.90;;;2.50;92.50;102351.56;4831542;28;25209;-69
2024/01/28 00:39:15;;;;;;;11.40;6.70;;;2.70;99.90;;;2.49;92.21;102338.72;4828846;28;24479;-69
2024/01/28 00:41:37;;;;;;;13.60;6.70;;;2.70;99.90;;;2.49;91.70;102341.28;4834140;28;24443;-68
2024/01/28 00:44:01;;;;;;;12.18;6.80;;;2.70;99.90;;;2.46;91.90;102339.59;4826262;28;24976;-70
2024/01/28 00:46:23;;;;;;;11.25;6.80;;;2.70;99.90;;;2.41;92.07;102328.47;4829458;28;24443;-71
2024/01/28 00:48:45;;;;;;;11.50;6.50;;;2.70;99.90;;;2.42;92.16;102335.34;4835389;28;24464;-70
2024/01/28 00:51:07;;;;;;;11.13;6.40;;;2.60;99.90;;;2.42;92.03;102325.03;4834030;28;25041;-68
2024/01/28 00:53:29;;;;;;;10.98;6.15;;;2.60;99.90;;;2.40;92.61;102324.22;4827980;28;24491;-68
2024/01/28 00:55:51;;;;;;;12.15;6.53;;;2.60;99.90;;;2.38;92.84;102328.53;4820818;28;24677;-67
2024/01/28 00:58:13;;;;;;;11.70;6.40;;;2.60;99.90;;;2.39;92.24;102325.06;4832024;28;24531;-68
2024/01/28 01:00:35;;;;;;;12.70;5.93;;;2.60;99.90;;;2.40;91.82;102328.50;4834719;28;24490;-68
2024/01/28 01:02:57;;;;;;;9.35;5.78;;;2.60;99.90;;;2.36;91.96;102325.13;4815372;28;24455;-70
2024/01/28 01:05:19;;;;;;;10.65;5.60;;;2.60;99.90;;;2.35;92.30;102324.25;4832195;28;24518;-68
2024/01/28 01:07:42;;;;;;;10.82;6.20;;;2.60;99.90;;;2.37;92.35;102313.91;4834511;28;24506;-68
2024/01/28 01:10:04;;;;;;;13.45;6.40;;;2.60;99.90;;;2.40;92.43;102324.22;4839378;28;24425;-68
2024/01/28 01:12:26;;;;;;;9.27;5.47;;;2.60;99.90;;;2.42;91.90;102311.28;4837927;28;24459;-70
2024/01/28 01:14:48;;;;;;;12.77;6.00;;;2.60;99.90;;;2.42;92.41;102312.16;4819603;28;24491;-69
2024/01/28 01:17:10;;;;;;;10.83;6.30;;;2.60;99.90;;;2.40;91.75;102305.31;4837314;28;24435;-71
2024/01/28 01:19:32;;;;;;;11.02;6.18;;;2.60;99.90;;;2.33;91.91;102309.69;4832960;28;24519;-69
2024/01/28 01:21:57;;;;;;;10.68;6.00;;;2.60;99.90;;;2.32;91.88;102305.41;4837108;28;24862;-66
2024/01/28 01:24:18;;;;;;;11.73;6.50;;;2.50;99.90;;;2.34;92.56;102313.97;4831176;28;25008;-69
2024/01/28 01:26:40;;;;;;;12.98;6.53;;;2.60;99.90;;;2.35;92.12;102308.78;4836811;28;24961;-71
2024/01/28 01:29:04;;;;;;;11.77;6.13;;;2.60;99.90;;;2.34;92.62;102298.53;4838289;28;24523;-70
2024/01/28 01:31:26;;;;;;;10.13;5.85;;;2.50;99.90;;;2.30;92.29;102307.13;4819334;28;24736;-68
2024/01/28 01:33:48;;;;;;;14.38;6.07;;;2.50;99.90;;;2.28;92.89;102308.88;4834183;28;24463;-68
2024/01/28 01:36:12;;;;;;;11.80;5.72;;;2.50;99.90;;;2.27;92.53;102304.59;4840544;28;24565;-68
2024/01/28 01:38:34;;;;;;;9.77;6.10;;;2.50;99.90;;;2.26;92.82;102310.63;4834928;28;24537;-68
2024/01/28 01:40:58;;;;;;;12.20;5.60;;;2.50;99.90;;;2.23;93.29;102308.09;4849499;28;20787;-69
2024/01/28 01:43:22;;;;;;;10.18;5.82;;;2.40;99.90;;;2.23;92.73;102297.78;4846812;28;24460;-70
2024/01/28 01:45:44;;;;;;;14.00;6.00;;;2.40;99.90;;;2.25;92.78;102301.19;4813886;28;24557;-68
2024/01/28 01:48:12;;;;;;;12.45;5.90;;;2.50;99.90;;;2.22;92.93;102307.22;4837655;28;24455;-67
2024/01/28 01:50:35;;;;;;;8.48;5.88;;;2.50;99.90;;;2.22;93.22;102306.38;4840297;28;24429;-68
2024/01/28 01:52:57;;;;;;;10.52;6.10;;;2.50;99.90;;;2.20;93.09;102296.09;4835169;28;24431;-68
2024/01/28 01:55:20;;;;;;;8.55;5.47;;;2.50;99.90;;;2.19;93.48;102296.94;4830756;28;25162;-67
2024/01/28 01:57:43;;;;;;;12.25;5.97;;;2.50;99.90;;;2.16;93.32;102299.56;4841697;28;24845;-69
2024/01/28 02:00:07;;;;;;;11.50;5.97;;;2.40;99.90;;;2.14;93.12;102297.88;4833201;28;24448;-66
2024/01/28 02:02:30;;;;;;;10.90;6.20;;;2.40;99.90;;;1.98;93.91;102297.19;4831807;28;24471;-68
2024/01/28 02:04:53;;;;;;;8.60;5.95;;;2.30;99.90;;;1.97;93.56;102292.91;4846581;28;21621;-67
2024/01/28 02:07:15;;;;;;;9.52;5.80;;;2.20;99.90;;;2.00;94.30;102289.47;4828010;28;24436;-70
2024/01/28 02:09:37;;;;;;;12.25;5.68;;;2.20;99.90;;;2.03;93.38;102281.69;4840762;28;24523;-69
2024/01/28 02:12:01;;;;;;;12.10;6.17;;;2.20;99.90;;;2.07;93.64;102275.63;4838268;28;24520;-67
2024/01/28 02:14:28;;;;;;;10.85;5.63;;;2.30;99.90;;;2.09;93.43;102279.91;4821422;28;24444;-67
2024/01/28 02:16:54;;;;;;;8.85;5.50;;;2.30;99.90;;;2.07;93.44;102273.06;4830375;28;25058;-65
2024/01/28 02:19:17;;;;;;;11.23;5.75;;;2.20;99.90;;;2.05;92.94;102278.22;4834755;28;24573;-65
2024/01/28 02:21:39;;;;;;;9.63;6.20;;;2.20;99.90;;;2.01;92.95;102274.00;4828406;28;24444;-68
2024/01/28 02:24:01;;;;;;;9.05;5.13;;;2.20;99.90;;;2.02;93.03;102267.13;4835706;28;24421;-67
2024/01/28 02:26:23;;;;;;;9.35;5.53;;;2.20;99.90;;;2.01;92.34;102267.97;4839398;28;24460;-68
2024/01/28 02:28:45;;;;;;;9.90;5.15;;;2.20;99.90;;;1.96;92.53;102259.47;4836431;28;24867;-65
2024/01/28 02:31:07;;;;;;;12.13;5.60;;;2.20;99.90;;;1.93;91.89;102262.06;4826600;28;24818;-66
2024/01/28 02:33:29;;;;;;;8.40;5.30;;;2.10;99.90;;;1.90;91.90;102250.06;4830085;28;24566;-68
2024/01/28 02:35:51;;;;;;;8.40;5.00;;;2.10;99.90;;;1.89;91.96;102256.13;4825775;28;24441;-68
2024/01/28 02:38:13;;;;;;;8.48;5.18;;;2.10;99.90;;;1.86;92.19;102256.13;4835906;28;24495;-67
2024/01/28 02:40:35;;;;;;;10.15;5.55;;;2.00;99.90;;;1.83;92.41;102255.31;4827932;28;24996;-65
2024/01/28 02:42:57;;;;;;;10.95;5.90;;;2.00;99.90;;;1.76;92.38;102248.53;4836275;28;24842;-67
2024/01/28 02:45:19;;;;;;;9.45;5.72;;;2.00;99.90;;;1.67;93.25;102253.75;4835256;28;24534;-64
2024/01/28 02:47:41;;;;;;;11.40;5.70;;;1.90;99.90;;;1.65;93.39;102253.78;4827413;28;25098;-67
2024/01/28 02:50:04;;;;;;;9.50;5.40;;;1.90;99.90;;;1.61;94.01;102253.81;4828409;28;24472;-67
2024/01/28 02:52:26;;;;;;;10.20;5.80;;;1.80;99.90;;;1.62;93.48;102246.06;4835382;28;24519;-65
2024/01/28 02:54:48;;;;;;;10.75;5.82;;;1.80;99.90;;;1.63;93.73;102252.06;4831035;28;24494;-65
2024/01/28 02:57:10;;;;;;;11.63;6.23;;;1.90;99.90;;;1.58;94.26;102259.00;4822632;28;24445;-64
2024/01/28 02:59:32;;;;;;;9.60;6.15;;;1.80;99.90;;;1.60;94.08;102258.09;4843445;28;24431;-65
2024/01/28 03:01:54;;;;;;;10.82;5.93;;;1.80;99.90;;;1.58;93.93;102251.28;4847851;28;24874;-67
2024/01/28 03:04:16;;;;;;;10.82;5.95;;;1.80;99.90;;;1.51;93.82;102255.63;4841131;28;24805;-68
2024/01/28 03:06:38;;;;;;;12.65;6.80;;;1.80;99.90;;;1.44;94.57;102249.69;4840187;28;24475;-65
2024/01/28 03:09:00;;;;;;;12.40;6.80;;;1.70;99.90;;;1.47;94.10;102256.50;4848587;28;25033;-64
2024/01/28 03:11:22;;;;;;;12.45;6.20;;;1.70;99.90;;;1.44;94.44;102259.13;4843444;28;24485;-65
2024/01/28 03:13:44;;;;;;;9.85;6.15;;;1.70;99.90;;;1.41;94.15;102257.41;4828618;28;24436;-65
2024/01/28 03:16:06;;;;;;;11.13;6.50;;;1.70;99.90;;;1.43;94.45;102267.69;4848371;28;24499;-65
2024/01/28 03:18:28;;;;;;;12.80;6.82;;;1.60;99.90;;;1.36;94.57;102255.78;4849850;28;25139;-65
2024/01/28 03:20:50;;;;;;;12.50;6.60;;;1.60;99.90;;;1.34;94.47;102268.63;4845732;28;24440;-66
2024/01/28 03:23:12;;;;;;;8.85;6.20;;;1.60;99.90;;;1.32;94.46;102262.63;4839511;28;25000;-65
2024/01/28 03:25:34;;;;;;;11.57;6.38;;;1.60;99.90;;;1.36;94.55;102266.88;4844221;28;24460;-68
2024/01/28 03:27:56;;;;;;;11.80;6.35;;;1.60;99.90;;;1.28;94.61;102266.09;4847679;28;24435;-66
2024/01/28 03:30:18;;;;;;;12.57;6.80;;;1.60;99.90;;;1.22;95.62;102266.16;4848832;28;24977;-65
2024/01/28 03:32:40;;;;;;;11.68;6.80;;;1.50;99.90;;;1.31;94.71;102260.94;4837922;28;24867;-67
2024/01/28 03:35:05;;;;;;;11.40;6.10;;;1.50;99.90;;;1.37;95.14;102260.03;4851527;28;24513;-65
2024/01/28 03:37:27;;;;;;;10.10;6.13;;;1.60;99.90;;;1.43;94.66;102265.13;4844052;28;24908;-65
2024/01/28 03:39:49;;;;;;;9.60;5.70;;;1.60;99.90;;;1.50;93.98;102259.06;4850533;28;24519;-64
2024/01/28 03:42:11;;;;;;;9.38;5.50;;;1.70;99.90;;;1.53;94.26;102264.19;4844482;28;24970;-66
2024/01/28 03:44:33;;;;;;;8.48;5.30;;;1.70;99.90;;;1.55;94.21;102265.03;4841454;28;24510;-65
2024/01/28 03:46:55;;;;;;;8.93;5.70;;;1.80;99.90;;;1.55;93.38;102262.47;4842208;28;25041;-68
2024/01/28 03:49:17;;;;;;;8.68;5.10;;;1.80;99.90;;;1.54;93.65;102271.88;4851872;28;24456;-65
2024/01/28 03:51:39;;;;;;;8.50;5.50;;;1.80;99.90;;;1.50;93.27;102262.50;4846642;28;24428;-63
2024/01/28 03:54:01;;;;;;;12.00;5.70;;;1.70;99.90;;;1.52;93.04;102270.19;4848134;28;24467;-65
2024/01/28 03:56:24;;;;;;;8.85;5.30;;;1.70;99.90;;;1.53;93.04;102264.19;4846786;28;25000;-64
2024/01/28 03:58:46;;;;;;;12.13;5.90;;;1.80;99.90;;;1.54;93.35;102266.75;4829045;28;25001;-63
2024/01/28 04:01:08;;;;;;;9.55;5.72;;;1.80;99.90;;;1.58;93.09;102266.72;4842692;28;24425;-63
2024/01/28 04:03:30;;;;;;;7.85;5.75;;;1.80;99.90;;;1.58;93.33;102268.41;4829329;28;25131;-64
2024/01/28 04:05:52;;;;;;;11.95;5.20;;;1.80;99.90;;;1.56;93.39;102267.56;4822324;28;24547;-66
2024/01/28 04:08:14;;;;;;;11.65;5.80;;;1.80;99.90;;;1.58;93.87;102264.16;4834896;28;25029;-64
2024/01/28 04:10:36;;;;;;;11.32;6.20;;;1.80;99.90;;;1.60;93.62;102265.00;4827379;28;24540;-69
2024/01/28 04:12:58;;;;;;;9.05;5.70;;;1.80;99.90;;;1.58;93.84;102253.88;4832680;28;24966;-64
2024/01/28 04:15:20;;;;;;;10.30;5.97;;;1.80;99.90;;;1.58;93.79;102250.41;4834244;28;24483;-64
2024/01/28 04:17:42;;;;;;;11.40;5.93;;;1.80;99.90;;;1.58;93.79;102252.13;4826586;28;24452;-64
2024/01/28 04:20:05;;;;;;;11.55;5.70;;;1.80;99.90;;;1.53;94.03;102254.72;4833500;28;24428;-64
2024/01/28 04:22:27;;;;;;;8.43;5.20;;;1.80;99.90;;;1.57;93.09;102258.16;4834695;28;24487;-66
2024/01/28 04:24:49;;;;;;;8.85;5.28;;;1.80;99.90;;;1.50;93.24;102259.06;4824898;28;24452;-66
2024/01/28 04:27:11;;;;;;;7.10;5.00;;;1.80;99.90;;;1.46;93.51;102255.66;4833691;28;24429;-65
2024/01/28 04:29:33;;;;;;;9.80;5.15;;;1.70;99.90;;;1.39;93.89;102260.88;4834741;28;24436;-67
2024/01/28 04:31:55;;;;;;;11.70;5.40;;;1.60;99.90;;;1.40;93.25;102255.72;4830081;28;24454;-66
2024/01/28 04:34:17;;;;;;;9.70;4.90;;;1.60;99.90;;;1.36;93.10;102254.03;4828832;28;25096;-64
2024/01/28 04:36:39;;;;;;;7.10;4.80;;;1.60;99.90;;;1.32;91.58;102252.34;4838468;28;24498;-66
2024/01/28 04:39:02;;;;;;;9.93;5.10;;;1.60;99.90;;;1.26;91.21;102243.81;4831614;28;24792;-64
2024/01/28 04:41:24;;;;;;;7.80;5.30;;;1.50;99.90;;;1.18;91.54;102243.91;4838085;28;25048;-64
2024/01/28 04:43:46;;;;;;;7.90;5.18;;;1.50;99.90;;;1.16;91.46;102243.06;4838249;28;24432;-65
2024/01/28 04:46:08;;;;;;;9.07;5.65;;;1.40;99.90;;;1.11;92.38;102243.97;4836245;28;24471;-64
2024/01/28 04:48:30;;;;;;;9.25;5.90;;;1.40;99.90;;;1.01;93.44;102243.19;4832222;28;24440;-64
2024/01/28 04:50:52;;;;;;;7.90;5.10;;;1.30;99.90;;;1.04;93.84;102237.16;4835559;28;24479;-65
2024/01/28 04:53:14;;;;;;;11.30;5.40;;;1.30;99.90;;;1.07;93.60;102235.41;4837815;28;24429;-64
2024/01/28 04:55:36;;;;;;;8.25;5.20;;;1.30;99.90;;;1.06;93.95;102238.00;4830782;28;24555;-64
2024/01/28 04:57:58;;;;;;;9.02;5.20;;;1.30;99.90;;;1.06;93.99;102241.44;4835076;28;24432;-64
2024/01/28 05:00:20;;;;;;;11.20;5.63;;;1.30;99.90;;;1.07;93.87;102244.84;4838281;28;24858;-64
2024/01/28 05:02:42;;;;;;;11.73;5.30;;;1.30;99.90;;;1.09;93.37;102237.97;4829327;28;24449;-64
2024/01/28 05:05:04;;;;;;;9.02;5.15;;;1.30;99.90;;;1.12;94.03;102233.66;4836961;28;24846;-64
2024/01/28 05:07:26;;;;;;;7.97;4.93;;;1.30;99.90;;;1.16;93.99;102235.34;4820330;28;24424;-63
2024/01/28 05:09:48;;;;;;;9.80;5.20;;;1.40;99.90;;;1.16;93.94;102225.06;4834252;28;24527;-65
2024/01/28 05:12:10;;;;;;;7.95;5.25;;;1.40;99.90;;;1.17;93.71;102226.75;4838455;28;24463;-63
2024/01/28 05:14:32;;;;;;;7.63;5.50;;;1.40;99.90;;;1.17;94.10;102221.63;4830778;28;24441;-64
2024/01/28 05:16:54;;;;;;;7.50;5.10;;;1.40;99.90;;;1.16;93.75;102225.06;4833254;28;25040;-65
2024/01/28 05:19:17;;;;;;;7.85;5.28;;;1.40;99.90;;;1.15;93.54;102225.09;4819966;28;24998;-64
2024/01/28 05:21:39;;;;;;;6.90;4.80;;;1.40;99.90;;;1.16;93.26;102225.06;4831417;28;24520;-66
2024/01/28 05:24:00;;;;;;;9.05;5.40;;;1.40;99.90;;;1.18;93.54;102238.75;4835233;28;24429;-63
2024/01/28 05:26:22;;;;;;;7.60;5.23;;;1.40;99.90;;;1.18;93.11;102237.91;4833837;28;24477;-69
2024/01/28 05:28:45;;;;;;;8.85;5.25;;;1.40;99.90;;;1.16;93.30;102231.91;4828238;28;24431;-64
2024/01/28 05:31:08;;;;;;;9.43;5.45;;;1.40;99.90;;;1.09;93.17;102228.53;4837581;28;24600;-67
2024/01/28 05:33:34;;;;;;;9.38;5.45;;;1.30;99.90;;;1.04;94.40;102229.47;4834947;28;24555;-64
2024/01/28 05:35:57;;;;;;;10.68;6.30;;;1.30;99.90;;;0.91;94.77;102233.84;4838533;28;24432;-68
2024/01/28 05:38:19;;;;;;;10.90;6.70;;;1.20;99.90;;;0.88;95.64;102225.28;4828562;28;25074;-66
2024/01/28 05:40:41;;;;;;;10.10;6.70;;;1.20;99.90;;;0.90;95.25;102226.13;4837192;28;25050;-64
2024/01/28 05:43:03;;;;;;;13.48;6.50;;;1.20;99.90;;;0.85;95.26;102222.75;4826643;28;24495;-64
2024/01/28 05:45:25;;;;;;;10.38;6.40;;;1.20;99.90;;;0.81;95.57;102216.75;4836316;28;24494;-64
2024/01/28 05:47:47;;;;;;;9.70;6.00;;;1.10;99.90;;;0.88;95.40;102215.00;4837111;28;24428;-64
2024/01/28 05:50:10;;;;;;;11.02;5.70;;;1.10;99.90;;;0.97;95.26;102220.06;4826551;28;24455;-66
2024/01/28 05:52:31;;;;;;;7.95;5.65;;;1.20;99.90;;;1.02;94.69;102220.91;4837156;28;24514;-64
2024/01/28 05:54:53;;;;;;;10.57;6.20;;;1.20;99.90;;;1.02;95.06;102224.34;4836058;28;24502;-63
2024/01/28 05:57:15;;;;;;;13.70;6.67;;;1.30;99.90;;;0.93;95.25;102221.81;4829144;28;24452;-64
2024/01/28 05:59:38;;;;;;;11.55;6.15;;;1.20;99.90;;;0.93;95.12;102220.97;4826695;28;24429;-65
2024/01/28 06:02:00;;;;;;;10.00;6.53;;;1.20;99.90;;;0.95;95.42;102225.22;4832868;28;24559;-65
2024/01/28 06:04:22;;;;;;;9.80;6.15;;;1.20;99.90;;;0.97;95.01;102228.66;4835988;28;25030;-64
2024/01/28 06:06:44;;;;;;;11.25;5.70;;;1.30;99.90;;;1.01;95.09;102230.31;4835081;28;24453;-63
2024/01/28 06:09:06;;;;;;;13.52;6.07;;;1.30;99.90;;;0.99;95.00;102232.06;4836877;28;24886;-63
2024/01/28 06:11:29;;;;;;;11.20;6.07;;;1.30;99.90;;;1.01;94.72;102226.91;4837688;28;25069;-66
2024/01/28 06:13:50;;;;;;;13.02;6.32;;;1.30;99.90;;;0.89;95.21;102227.00;4828132;28;24441;-65
2024/01/28 06:16:12;;;;;;;10.98;6.50;;;1.20;99.90;;;0.97;94.72;102225.22;4834356;28;24436;-66
2024/01/28 06:18:41;;;;;;;9.38;6.22;;;1.20;99.90;;;1.01;94.95;102224.31;4836342;28;24527;-67
2024/01/28 06:21:03;;;;;;;11.60;5.93;;;1.30;99.90;;;1.02;95.07;102220.91;4827717;28;24862;-65
2024/01/28 06:23:25;;;;;;;11.60;6.00;;;1.20;99.90;;;0.99;95.09;102221.78;4829320;28;24530;-66
2024/01/28 06:25:47;;;;;;;9.32;5.80;;;1.20;99.90;;;1.01;94.46;102225.19;4836163;28;24459;-66
2024/01/28 06:28:09;;;;;;;8.45;5.20;;;1.20;99.90;;;1.05;94.68;102220.88;4826680;28;24452;-66
2024/01/28 06:30:35;;;;;;;9.00;5.32;;;1.30;99.90;;;1.02;94.53;102219.19;4836434;28;24487;-64
2024/01/28 06:32:57;;;;;;;9.98;6.07;;;1.30;99.90;;;1.01;94.54;102224.31;4835489;28;24520;-65
2024/01/28 06:35:19;;;;;;;8.65;6.00;;;1.20;99.90;;;1.02;93.82;102216.63;4829872;28;24444;-64
2024/01/28 06:37:41;;;;;;;9.40;5.70;;;1.30;99.90;;;1.03;94.02;102215.75;4837784;28;24528;-65
2024/01/28 06:40:03;;;;;;;8.90;5.85;;;1.30;99.90;;;1.01;93.73;102222.63;4834126;28;24531;-65
2024/01/28 06:42:25;;;;;;;9.60;5.45;;;1.20;99.90;;;0.99;93.25;102216.63;4836488;28;24440;-70
2024/01/28 06:44:47;;;;;;;7.30;5.20;;;1.30;99.90;;;0.94;92.66;102213.22;4828193;28;24503;-65
2024/01/28 06:47:09;;;;;;;7.90;5.20;;;1.20;99.90;;;0.91;92.14;102213.28;4819163;28;25148;-66
2024/01/28 06:49:31;;;;;;;10.50;6.07;;;1.20;99.90;;;0.85;92.04;102203.03;4836325;28;24498;-66
2024/01/28 06:51:53;;;;;;;10.65;6.10;;;1.10;99.90;;;0.87;92.66;102215.88;4830380;28;24810;-65
2024/01/28 06:54:18;;;;;;;10.60;5.70;;;1.10;99.90;;;0.86;93.15;102215.00;4835881;28;24463;-64
2024/01/28 06:56:40;;;;;;;7.68;5.22;;;1.10;99.90;;;0.79;92.97;102218.47;4833911;28;24448;-64
2024/01/28 06:59:02;;;;;;;10.07;5.10;;;1.10;99.90;;;0.77;92.40;102215.06;4822808;28;24536;-64
2024/01/28 07:01:24;;;;;;;7.25;4.80;;;1.00;99.90;;;0.74;91.87;102222.81;4833872;28;24444;-64
2024/01/28 07:03:46;;;;;;;9.10;5.20;;;1.00;99.90;;;0.68;91.29;102226.25;4827884;28;24993;-64
2024/01/28 07:06:14;;;;;;;8.60;5.20;;;0.90;99.90;;;0.66;91.47;102215.13;4823688;28;26149;-65
2024/01/28 07:08:36;;;;;;;9.52;5.55;;;0.90;99.90;;;0.64;90.92;102222.00;4828586;28;20770;-68
2024/01/28 07:11:01;;;;;;;8.45;5.70;;;0.90;99.90;;;0.62;90.80;102217.72;4835294;28;24986;-65
2024/01/28 07:13:23;;;;;;;11.32;6.05;;;0.90;99.90;;;0.62;90.98;102221.16;4829019;28;24502;-64
2024/01/28 07:15:45;;;;;;;7.60;4.77;;;0.90;99.90;;;0.64;91.29;102222.00;4831066;28;24428;-66
2024/01/28 07:18:07;;;;;;;9.85;5.30;;;0.90;99.90;;;0.67;91.60;102229.72;4835431;28;24864;-65
2024/01/28 07:20:29;;;;;;;8.82;5.50;;;0.90;99.90;;;0.70;92.04;102223.69;4830975;28;24440;-64
2024/01/28 07:22:51;;;;;;;7.95;5.75;;;1.00;99.90;;;0.73;92.63;102219.38;4836191;28;24511;-64
2024/01/28 07:25:13;;;;;;;9.13;5.55;;;1.00;99.90;;;0.81;93.37;102221.88;4832727;28;24466;-65
2024/01/28 07:27:35;;;;;;;10.38;5.30;;;1.00;99.90;;;0.94;93.00;102220.13;4836097;28;25060;-65
2024/01/28 07:29:57;;;;;;;10.98;5.60;;;1.10;99.90;;;1.02;92.79;102226.91;4831614;28;24444;-67
2024/01/28 07:32:19;;;;;;;8.48;5.03;;;1.20;99.90;;;1.16;92.39;102225.06;4835685;28;24436;-68
2024/01/28 07:34:41;;;;;;;8.93;5.40;;;1.30;99.90;;;1.24;91.72;102231.00;4831396;28;24939;-67
2024/01/28 07:37:03;;;;;;;8.35;5.47;;;1.40;99.90;;;1.26;91.20;102226.69;4835056;28;24487;-68
2024/01/28 07:39:28;;;;;;;8.10;5.40;;;1.40;99.90;;;1.39;90.90;102232.56;4832789;28;24476;-67
2024/01/28 07:41:50;;;;;;;8.25;4.90;;;1.50;99.90;;;1.53;91.05;102221.28;4835338;28;24834;-64
2024/01/28 07:44:12;;;;;;;9.60;5.88;;;1.60;99.90;;;1.86;90.72;102220.09;4832724;28;24444;-65
2024/01/28 07:46:34;;;;;;;8.77;5.60;;;1.80;99.90;;;2.28;89.87;102222.16;4836390;28;24459;-64
2024/01/28 07:48:56;;;;;;;10.02;5.95;;;2.10;99.90;;;3.04;87.77;102231.38;4833448;28;24459;-64
2024/01/28 07:51:18;;;;;;;10.00;5.70;;;2.70;99.90;;;3.53;84.01;102234.88;4836336;28;24432;-64
2024/01/28 07:53:40;;;;;;;9.18;5.90;;;3.20;99.90;;;3.91;81.01;102231.56;4834464;28;24475;-64
2024/01/28 07:56:06;;;;;;;11.50;6.30;;;3.60;99.90;;;4.40;78.97;102234.00;4833019;28;24522;-64
2024/01/28 07:58:27;;;;;;;12.40;6.20;;;4.00;99.90;;;4.97;76.66;102224.09;4823017;28;24547;-64
2024/01/28 08:00:49;;;;;;;10.75;6.57;;;4.50;99.90;;;5.54;73.38;102221.81;4831907;28;20771;-64
2024/01/28 08:03:11;;;;;;;9.05;6.75;;;5.00;99.90;;;6.06;70.84;102224.72;4834444;28;24433;-64
2024/01/28 08:05:33;;;;;;;10.52;6.50;;;5.50;99.90;;;6.66;68.94;102220.34;4828968;28;21332;-64
2024/01/28 08:07:55;;;;;;;9.95;6.28;;;6.00;99.90;;;7.08;66.82;102223.31;4832401;28;24911;-64
2024/01/28 08:10:17;;;;;;;11.85;6.30;;;6.40;99.90;;;7.80;64.20;102215.63;4832488;28;24551;-64
2024/01/28 08:12:39;;;;;;;12.45;6.70;;;6.90;99.90;;;8.33;61.66;102210.25;4826953;28;24440;-64
2024/01/28 08:15:02;;;;;;;12.07;6.30;;;7.50;99.90;;;8.80;59.74;102211.00;4824547;28;24459;-65
2024/01/28 08:17:24;;;;;;;9.80;6.05;;;8.00;99.90;;;9.49;57.91;102217.72;4835484;28;24507;-68
2024/01/28 08:19:46;;;;;;;13.25;6.80;;;8.50;99.90;;;10.23;56.09;102223.13;4833522;28;24529;-71
2024/01/28 08:22:08;;;;;;;10.70;6.80;;;9.20;99.90;;;11.25;52.28;102225.16;4828872;28;24511;-68
2024/01/28 08:24:32;;;;;;;12.50;6.95;;;10.10;99.90;;;12.01;50.53;102227.34;4833629;28;24452;-69
2024/01/28 08:26:54;;;;;;;10.95;6.82;;;10.90;99.90;;;13.11;48.17;102238.75;4829568;28;25021;-67
2024/01/28 08:29:17;;;;;;;12.10;7.07;;;11.80;99.90;;;13.77;45.84;102226.94;4826438;28;24451;-65
2024/01/28 08:31:38;;;;;;;11.45;7.25;;;12.50;99.80;;;14.59;44.08;102227.91;4835085;28;24460;-67
2024/01/28 08:34:00;;;;;;;10.00;6.75;;;13.30;98.00;;;15.66;42.27;102233.09;4831823;28;24844;-68
2024/01/28 08:36:22;;;;;;;9.10;6.60;;;14.20;96.10;;;16.59;40.02;102220.38;4835473;28;24524;-66
2024/01/28 08:38:44;;;;;;;12.15;7.03;;;15.00;93.80;;;17.44;37.78;102225.41;4832689;28;24506;-67
2024/01/28 08:41:07;;;;;;;12.40;7.50;;;15.90;90.80;;;18.53;35.83;102222.16;4836428;28;24489;-66
2024/01/28 08:43:29;;;;;;;12.88;7.28;;;16.80;87.20;;;19.25;34.68;102233.84;4827881;28;24588;-64
2024/01/28 08:45:51;;;;;;;14.02;8.57;;;17.60;82.40;;;20.13;33.20;102230.63;4835117;28;20820;-63
2024/01/28 08:48:13;;;;;;;14.15;8.05;;;18.30;78.20;;;21.04;31.65;102226.97;4834476;28;24487;-71
2024/01/28 08:50:37;;;;;;;11.82;7.85;;;19.20;73.90;;;21.88;30.29;102224.34;4829108;28;24444;-63
2024/01/28 08:52:59;;;;;;;12.80;7.30;;;19.90;69.50;;;22.76;29.23;102240.59;4835291;28;25222;-64
2024/01/28 08:55:21;;;;;;;14.90;8.07;;;20.70;66.50;;;23.62;28.22;102241.69;4830609;28;24567;-64
2024/01/28 08:57:43;;;;;;;13.68;7.47;;;21.40;63.70;;;24.50;26.89;102234.16;4825965;28;24432;-64
2024/01/28 09:00:11;;;;;;;12.57;7.90;;;22.20;60.70;;;24.44;26.07;102233.97;4822053;28;24994;-64
2024/01/28 09:02:35;;;;;;;10.93;7.35;;;22.50;57.60;;;24.67;26.11;102246.56;4827314;28;24513;-63
2024/01/28 09:04:58;;;;;;;10.23;7.25;;;22.70;57.10;;;25.09;25.27;102240.31;4832675;28;24973;-69
2024/01/28 09:07:20;;;;;;;10.87;7.83;;;22.90;55.40;;;24.96;25.38;102239.97;4818678;28;24830;-62
2024/01/28 09:09:42;;;;;;;10.38;7.20;;;23.00;54.50;;;25.19;24.91;102246.34;4829410;28;24532;-62
2024/01/28 09:12:07;;;;;;;10.15;7.40;;;23.20;53.60;;;25.67;24.51;102240.13;4832691;28;24428;-63
2024/01/28 09:14:29;;;;;;;10.55;7.00;;;23.50;52.70;;;25.98;24.33;102239.22;4823440;28;24832;-62
2024/01/28 09:16:51;;;;;;;12.98;7.25;;;23.80;52.10;;;25.85;24.25;102235.44;4834943;28;24479;-62
2024/01/28 09:19:13;;;;;;;9.70;6.80;;;23.90;51.40;;;25.63;24.54;102242.31;4836270;28;24532;-65
2024/01/28 09:21:35;;;;;;;9.13;6.88;;;23.60;51.10;;;25.68;24.60;102248.00;4839018;28;24606;-63
2024/01/28 09:23:58;;;;;;;10.95;7.07;;;23.60;51.40;;;25.68;24.59;102247.16;4818900;28;24568;-64
2024/01/28 09:26:20;;;;;;;10.57;6.90;;;23.50;51.30;;;25.32;24.58;102252.84;4838764;28;24471;-63
2024/01/28 09:28:41;;;;;;;10.30;6.85;;;23.30;51.00;;;22.58;27.50;102241.50;4818947;28;24551;-63
2024/01/28 09:31:08;;;;;;;12.80;6.90;;;21.50;52.30;;;19.07;31.46;102230.06;4822208;28;24455;-65
2024/01/28 09:33:30;;;;;;;10.85;6.93;;;18.90;55.40;;;15.94;36.66;102242.59;4834216;28;25288;-64
2024/01/28 09:35:52;;;;;;;11.63;7.57;;;16.30;59.20;;;13.60;41.37;102231.47;4836826;28;24551;-64
2024/01/28 09:38:14;;;;;;;16.35;9.40;;;14.10;64.00;;;11.86;45.69;102243.03;4834250;28;24503;-64
2024/01/28 09:40:36;;;;;;;11.63;7.18;;;12.30;68.20;;;10.36;50.69;102234.69;4834689;28;24432;-64
2024/01/28 09:42:59;;;;;;;11.02;7.20;;;11.00;73.20;;;9.43;52.94;102241.44;4833475;28;24526;-63
2024/01/28 09:45:21;;;;;;;10.63;6.23;;;9.80;78.10;;;8.71;55.36;102238.25;4824856;28;24451;-65
2024/01/28 09:47:44;;;;;;;11.05;6.20;;;9.00;82.70;;;8.04;59.26;102244.25;4836582;28;24455;-64
2024/01/28 09:50:08;;;;;;;8.35;6.00;;;8.30;89.90;;;7.50;59.91;102240.06;4818767;28;24429;-64
2024/01/28 09:52:31;;;;;;;8.73;6.15;;;7.70;94.10;;;6.98;62.44;102221.94;4838443;28;24555;-64
2024/01/28 09:54:53;;;;;;;11.80;6.90;;;7.30;97.90;;;6.69;64.33;102230.59;4833684;28;24445;-63
2024/01/28 09:57:15;;;;;;;10.88;6.60;;;6.90;99.90;;;6.49;66.32;102224.34;4835175;28;24550;-64
2024/01/28 09:59:38;;;;;;;10.35;6.70;;;6.60;99.90;;;6.48;66.57;102231.25;4811042;28;24615;-63